Time;durP1;ratioP1;P1;durP2;ratioP2;P2;SDS_P1;SDS_P2;PMS_P1;PMS_P2;Temp;Humidity;BMP_temperature;BMP_pressure;BME280_temperature;BME280_humidity;BME280_pressure;Samples;Min_cycle;Max_cycle;Signal;HPM_P1;HPM_P2
2023/01/10 00:00:01;;;;;;;;;95.25;79.75;;;;;7.17;100.00;98247.91;6313478;20;4422121;-58
2023/01/10 00:02:30;;;;;;;;;71.67;54.67;;;;;7.18;100.00;98241.59;6311459;20;3639979;-58
2023/01/10 00:04:59;;;;;;;;;70.50;56.50;;;;;7.33;100.00;98247.66;6312036;20;2873295;-56
2023/01/10 00:07:28;;;;;;;;;49.00;38.67;;;;;7.22;100.00;98240.44;6281428;20;3645447;-58
2023/01/10 00:09:58;;;;;;;;;75.00;58.00;;;;;7.17;100.00;98236.38;6311634;20;3631641;-56
2023/01/10 00:15:15;;;;;;;;;49.67;38.00;;;;;7.20;100.00;98236.16;6307220;20;3625372;-59
2023/01/10 00:17:45;;;;;;;;;87.00;72.33;;;;;7.24;100.00;98235.84;6311620;20;3657616;-59
2023/01/10 00:20:15;;;;;;;;;74.67;58.33;;;;;7.18;100.00;98225.56;6280300;20;3629430;-59
2023/01/10 00:22:44;;;;;;;;;58.50;49.00;;;;;7.33;100.00;98230.78;6308687;20;2846543;-58
2023/01/10 00:25:13;;;;;;;;;63.00;52.00;;;;;7.18;100.00;98225.56;6280202;20;2863201;-58
2023/01/10 00:27:44;;;;;;;;;74.33;55.67;;;;;7.31;100.00;98220.22;6282573;20;3646231;-59
2023/01/10 00:30:14;;;;;;;;;63.33;50.00;;;;;7.09;100.00;98234.25;6310334;20;2883731;-59
2023/01/10 00:32:44;;;;;;;;;49.50;40.50;;;;;7.35;100.00;98234.22;6312355;20;2847342;-58
2023/01/10 00:35:13;;;;;;;;;47.50;41.00;;;;;7.08;100.00;98231.69;6281045;20;2854584;-58
2023/01/10 00:37:42;;;;;;;;;73.00;57.00;;;;;7.38;100.00;98225.97;6277385;20;2754537;-59
2023/01/10 00:40:12;;;;;;;;;56.00;43.00;;;;;7.38;100.00;98228.66;6277065;20;3606642;-58
2023/01/10 00:45:29;;;;;;;;;43.00;36.33;;;;;7.23;100.00;98228.78;6313379;20;2850576;-60
2023/01/10 00:47:59;;;;;;;;;38.33;31.33;;;;;7.30;100.00;98231.03;6314213;20;2864988;-59
2023/01/10 00:50:28;;;;;;;;;38.33;30.33;;;;;7.16;100.00;98226.66;6311137;20;2875427;-59
2023/01/10 00:52:57;;;;;;;;;43.33;35.33;;;;;7.08;100.00;98231.69;6316585;20;3600298;-59
2023/01/10 00:55:25;;;;;;;;;32.00;27.50;;;;;7.05;100.00;98227.41;6282081;20;2852591;-58
2023/01/10 00:57:54;;;;;;;;;43.50;38.00;;;;;7.12;100.00;98227.84;6277146;20;2862779;-59
2023/01/10 01:00:23;;;;;;;;;41.67;37.00;;;;;7.19;100.00;98234.47;6279222;20;3614841;-58
2023/01/10 01:02:52;;;;;;;;;41.50;36.00;;;;;7.12;100.00;98242.03;6280833;20;2857003;-58
2023/01/10 01:05:21;;;;;;;;;33.00;29.67;;;;;7.00;100.00;98243.75;6281109;20;3610752;-57
2023/01/10 01:07:52;;;;;;;;;48.67;39.33;;;;;7.09;100.00;98234.25;6308382;20;2870066;-58
2023/01/10 01:10:26;;;;;;;;;31.50;30.00;;;;;6.98;100.00;98235.00;6310667;20;2839867;-59
2023/01/10 01:13:15;;;;;;;;;32.33;29.33;;;;;6.94;100.00;98232.66;6275876;20;3599199;-57
2023/01/10 01:15:44;;;;;;;;;33.00;24.33;;;;;6.99;100.00;98233.19;6311429;20;3604461;-58
2023/01/10 01:18:20;;;;;;;;;35.67;33.00;;;;;6.96;100.00;98230.75;6279124;20;2859763;-58
2023/01/10 01:20:55;;;;;;;;;30.67;30.33;;;;;7.04;100.00;98234.56;6311881;20;3578442;-58
2023/01/10 01:23:24;;;;;;;;;35.50;27.50;;;;;6.96;100.00;98241.41;6276011;20;2858621;-54
2023/01/10 01:25:54;;;;;;;;;21.00;21.00;;;;;6.93;100.00;98239.81;6277650;20;2500368;-57
2023/01/10 01:28:23;;;;;;;;;28.00;25.00;;;;;6.95;100.00;98239.69;6278568;20;2845178;-60
2023/01/10 01:30:52;;;;;;;;;31.50;30.00;;;;;7.02;100.00;98241.81;6274767;20;2841955;-58
2023/01/10 01:33:21;;;;;;;;;23.50;22.00;;;;;7.09;100.00;98244.94;6279063;20;2834708;-59
2023/01/10 01:35:50;;;;;;;;;30.00;26.00;;;;;6.89;100.00;98235.63;6279936;20;2839971;-60
2023/01/10 01:38:19;;;;;;;;;31.00;28.00;;;;;6.96;100.00;98238.75;6280683;20;2852379;-59
2023/01/10 01:40:47;;;;;;;;;28.00;23.50;;;;;6.88;100.00;98239.28;6279654;20;2844048;-59
2023/01/10 01:43:30;;;;;;;;;32.67;32.33;;;;;7.05;100.00;98232.75;6278276;20;2851592;-58
2023/01/10 01:46:03;;;;;;;;;31.50;30.00;;;;;6.95;100.00;98237.00;6309384;20;2852390;-58
2023/01/10 01:48:42;;;;;;;;;30.50;24.00;;;;;6.99;100.00;98244.72;6279986;20;2844185;-59
2023/01/10 01:51:26;;;;;;;;;36.67;30.33;;;;;7.05;100.00;98243.41;6278003;20;2862861;-59
2023/01/10 01:54:10;;;;;;;;;42.00;36.00;;;;;7.04;100.00;98239.91;6311767;20;3597664;-58
2023/01/10 01:56:50;;;;;;;;;33.00;26.00;;;;;6.96;100.00;98252.94;6281624;20;2842470;-59
2023/01/10 01:59:39;;;;;;;;;43.67;36.00;;;;;6.96;100.00;98260.09;6282180;20;2853533;-60
2023/01/10 02:02:22;;;;;;;;;43.67;37.67;;;;;6.93;100.00;98249.63;6311340;20;3584831;-59
2023/01/10 02:04:59;;;;;;;;;25.50;25.00;;;;;6.91;100.00;98257.72;6282843;20;2845081;-59
2023/01/10 02:07:37;;;;;;;;;35.00;27.67;;;;;6.98;100.00;98258.19;6282161;20;2868127;-59
2023/01/10 02:10:24;;;;;;;;;30.50;26.00;;;;;6.99;100.00;98259.88;6314649;20;2848226;-59
2023/01/10 02:12:57;;;;;;;;;23.00;21.67;;;;;7.00;100.00;98261.56;6283650;20;3573199;-58
2023/01/10 02:15:26;;;;;;;;;32.50;27.00;;;;;6.99;100.00;98259.88;6283397;20;2849355;-58
2023/01/10 02:17:57;;;;;;;;;31.67;25.67;;;;;7.06;100.00;98255.81;6281533;20;2859788;-58
2023/01/10 02:20:37;;;;;;;;;27.00;26.00;;;;;6.96;100.00;98255.59;6313821;20;2842820;-58
2023/01/10 02:23:44;;;;;;;;;22.00;21.00;;;;;7.03;100.00;98256.88;6281955;20;2827346;-59
2023/01/10 02:26:40;;;;;;;;;28.00;26.00;;;;;7.09;100.00;98250.25;6280128;20;2849242;-59
2023/01/10 02:30:29;;;;;;;;;33.00;26.00;;;;;7.14;100.00;98248.13;6281877;20;2857619;-59
2023/01/10 02:33:36;;;;;;;;;33.00;27.00;;;;;7.14;100.00;98253.47;6282169;20;2839943;-59
2023/01/10 02:37:07;;;;;;;;;30.00;27.50;;;;;7.45;100.00;98248.59;6279675;20;2848332;-59
2023/01/10 02:39:55;;;;;;;;;36.33;31.67;;;;;7.44;100.00;98263.75;6278488;20;2865949;-60
2023/01/10 02:42:50;;;;;;;;;32.50;27.00;;;;;7.35;100.00;98252.91;6312498;20;2845180;-59
2023/01/10 02:45:47;;;;;;;;;28.50;26.50;;;;;7.17;100.00;98245.22;6278935;20;2498797;-60
2023/01/10 02:48:17;;;;;;;;;32.00;27.00;;;;;7.08;100.00;98243.19;6284730;20;2849200;-59
2023/01/10 02:51:17;;;;;;;;;28.00;26.00;;;;;7.43;100.00;98243.38;6280713;20;2836736;-60
2023/01/10 02:54:21;;;;;;;;;29.50;26.00;;;;;7.08;100.00;98243.19;6281930;20;2842172;-60
2023/01/10 02:57:34;;;;;;;;;33.50;29.00;;;;;7.20;100.00;98257.50;6281028;20;2851468;-60
2023/01/10 03:00:24;;;;;;;;;30.00;24.00;;;;;7.19;100.00;98251.31;6282998;20;2850316;-59
2023/01/10 03:03:46;;;;;;;;;35.50;28.00;;;;;7.14;100.00;98239.28;6282541;20;2851372;-60
2023/01/10 03:07:07;;;;;;;;;32.33;25.67;;;;;7.34;100.00;98261.84;6278974;20;2850316;-60
2023/01/10 03:10:22;;;;;;;;;34.00;29.67;;;;;7.35;100.00;98260.91;6308548;20;3597139;-58
2023/01/10 03:13:15;;;;;;;;;38.33;27.67;;;;;7.37;100.00;98262.50;6273109;20;2862806;-59
2023/01/10 03:15:47;;;;;;;;;34.00;30.00;;;;;7.45;100.00;98257.47;6308512;20;3600298;-59
2023/01/10 03:18:26;;;;;;;;;31.50;31.50;;;;;7.51;100.00;98261.50;6273924;20;2854544;-59
2023/01/10 03:20:59;;;;;;;;;35.33;29.67;;;;;7.32;100.00;98261.09;6274650;20;2858764;-59
2023/01/10 03:23:33;;;;;;;;;35.50;29.75;;;;;7.33;100.00;98268.16;6336966;20;3599233;-58
2023/01/10 03:26:08;;;;;;;;;21.50;20.00;;;;;7.41;100.00;98269.31;6310175;20;2827475;-60
2023/01/10 03:28:54;;;;;;;;;50.33;38.00;;;;;7.15;100.00;98260.50;6281958;20;3628873;-61
2023/01/10 03:31:42;;;;;;;;;45.00;37.67;;;;;7.35;100.00;98260.91;6311306;20;2864944;-59
2023/01/10 03:34:12;;;;;;;;;37.67;36.00;;;;;7.21;100.00;98254.75;6313664;20;3576284;-60
2023/01/10 03:37:16;;;;;;;;;35.00;34.00;;;;;7.26;100.00;98259.72;6311560;20;3589881;-60
2023/01/10 03:41:04;;;;;;;;;36.00;29.50;;;;;7.20;100.00;98261.03;6310736;20;2855548;-60
2023/01/10 03:44:43;;;;;;;;;39.50;37.50;;;;;7.30;100.00;98263.06;6278268;20;2848200;-59
2023/01/10 03:47:40;;;;;;;;;38.67;32.33;;;;;7.18;100.00;98262.94;6276415;20;2851405;-60
2023/01/10 03:50:21;;;;;;;;;43.33;37.00;;;;;7.10;100.00;98270.63;6310257;20;3590941;-59
2023/01/10 03:52:50;;;;;;;;;48.50;38.00;;;;;7.16;100.00;98256.88;6278900;20;2848195;-60
2023/01/10 03:55:27;;;;;;;;;51.67;36.67;;;;;7.16;100.00;98272.91;6283827;20;3625288;-58
2023/01/10 03:57:56;;;;;;;;;41.33;36.67;;;;;7.17;100.00;98268.41;6313706;20;3603431;-60
2023/01/10 04:00:25;;;;;;;;;38.00;30.67;;;;;7.23;100.00;98268.81;6278900;20;2869088;-60
2023/01/10 04:02:57;;;;;;;;;38.00;33.00;;;;;7.30;100.00;98279.94;6318956;20;3601297;-60
2023/01/10 04:05:26;;;;;;;;;38.00;30.67;;;;;7.30;100.00;98279.06;6280456;20;2867117;-58
2023/01/10 04:07:55;;;;;;;;;44.67;38.00;;;;;7.38;100.00;98287.38;6317231;20;3605869;-60
2023/01/10 04:10:25;;;;;;;;;43.67;36.00;;;;;7.27;100.00;98280.16;6280742;20;2857563;-59
2023/01/10 04:12:59;;;;;;;;;44.67;38.00;;;;;7.34;100.00;98275.22;6311317;20;3611765;-60
2023/01/10 04:15:29;;;;;;;;;45.00;34.67;;;;;7.20;100.00;98277.03;6281221;20;3625384;-60
2023/01/10 04:17:58;;;;;;;;;38.67;37.67;;;;;7.28;100.00;98270.31;6314982;20;3572585;-59
2023/01/10 04:20:27;;;;;;;;;31.00;29.33;;;;;7.32;100.00;98271.78;6307488;20;2860725;-59
2023/01/10 04:22:56;;;;;;;;;38.33;32.67;;;;;7.24;100.00;98270.53;6315914;20;3610651;-60
2023/01/10 04:25:24;;;;;;;;;30.00;25.50;;;;;7.30;100.00;98276.41;6283041;20;2845206;-59
2023/01/10 04:27:53;;;;;;;;;24.00;19.00;;;;;7.19;100.00;98262.00;6282188;20;2837790;-59
2023/01/10 04:30:23;;;;;;;;;37.67;32.67;;;;;7.22;100.00;98264.44;6280461;20;2867068;-59
2023/01/10 04:32:51;;;;;;;;;34.50;27.50;;;;;7.26;100.00;98268.59;6313540;20;2844069;-60
2023/01/10 04:35:20;;;;;;;;;24.00;19.50;;;;;7.24;100.00;98281.22;6284127;20;2833712;-59
2023/01/10 04:37:49;;;;;;;;;30.00;26.00;;;;;7.25;100.00;98271.38;6275747;20;2843146;-60
2023/01/10 04:40:22;;;;;;;;;37.33;33.67;;;;;7.21;100.00;98275.22;6278259;20;3620073;-59
2023/01/10 04:42:50;;;;;;;;;25.00;19.00;;;;;7.15;100.00;98276.50;6314485;20;2836776;-59
2023/01/10 04:45:20;;;;;;;;;31.00;25.50;;;;;7.15;100.00;98281.84;6276969;20;2848237;-60
2023/01/10 04:47:55;;;;;;;;;39.00;35.33;;;;;7.29;100.00;98280.88;6278483;20;2869275;-60
2023/01/10 04:50:23;;;;;;;;;36.50;25.00;;;;;7.14;100.00;98295.31;6307818;20;2481537;-59
2023/01/10 04:52:52;;;;;;;;;37.67;32.33;;;;;7.17;100.00;98301.28;6283684;20;3600301;-60
2023/01/10 04:55:21;;;;;;;;;37.50;31.00;;;;;7.16;100.00;98306.72;6278005;20;2857572;-60
2023/01/10 04:57:49;;;;;;;;;31.00;30.00;;;;;7.16;100.00;98320.94;6277442;20;2842007;-60
2023/01/10 05:00:18;;;;;;;;;24.50;20.50;;;;;7.23;100.00;98318.69;6278123;20;2500345;-59
2023/01/10 05:02:46;;;;;;;;;21.50;20.00;;;;;7.11;100.00;98312.41;6283208;20;2832569;-60
2023/01/10 05:05:14;;;;;;;;;34.50;26.00;;;;;7.12;100.00;98303.41;6276725;20;2496104;-59
2023/01/10 05:07:46;;;;;;;;;16.67;13.67;;;;;7.05;100.00;98307.47;6281870;20;3538811;-59
2023/01/10 05:10:15;;;;;;;;;23.33;20.67;;;;;6.97;100.00;98309.81;6279597;20;3556589;-60
2023/01/10 05:12:43;;;;;;;;;25.00;19.00;;;;;6.91;100.00;98311.09;6277969;20;2500430;-60
2023/01/10 05:15:12;;;;;;;;;18.33;17.00;;;;;6.91;100.00;98315.59;6277977;20;3554540;-60
2023/01/10 05:17:41;;;;;;;;;21.00;16.67;;;;;6.91;100.00;98328.94;6281033;20;3555633;-59
2023/01/10 05:20:12;;;;;;;;;34.50;29.50;;;;;6.97;100.00;98331.16;6311001;20;2846136;-59
2023/01/10 05:22:40;;;;;;;;;19.00;15.00;;;;;6.91;100.00;98336.94;6281108;20;3536870;-59
2023/01/10 05:25:08;;;;;;;;;13.50;12.00;;;;;6.91;100.00;98347.59;6313257;20;2790044;-60
2023/01/10 05:27:41;;;;;;;;;29.00;27.50;;;;;6.98;100.00;98354.22;6277628;20;2500266;-59
2023/01/10 05:30:12;;;;;;;;;23.00;15.50;;;;;6.94;100.00;98358.06;6278746;20;2848254;-60
2023/01/10 05:32:41;;;;;;;;;36.33;31.00;;;;;6.78;100.00;98364.44;6286478;20;2861727;-60
2023/01/10 05:35:10;;;;;;;;;29.00;26.00;;;;;6.76;100.00;98361.00;6317146;20;2844146;-59
2023/01/10 05:37:38;;;;;;;;;29.00;26.00;;;;;6.76;100.00;98355.66;6284293;20;2500333;-59
2023/01/10 05:40:08;;;;;;;;;29.00;28.00;;;;;6.82;100.00;98339.25;6283896;20;2850372;-60
2023/01/10 05:42:37;;;;;;;;;19.00;15.33;;;;;6.71;100.00;98324.94;6285400;20;2810798;-60
2023/01/10 05:45:07;;;;;;;;;27.67;21.00;;;;;6.77;100.00;98332.53;6311739;20;3582527;-58
2023/01/10 05:47:35;;;;;;;;;37.00;23.00;;;;;6.70;100.00;98352.56;6287040;20;2862781;-59
2023/01/10 05:50:05;;;;;;;;;33.50;29.00;;;;;6.68;100.00;98350.00;6282096;20;2846327;-62
2023/01/10 05:52:33;;;;;;;;;39.00;36.50;;;;;6.74;100.00;98338.94;6278345;20;2850356;-60
2023/01/10 05:55:04;;;;;;;;;37.33;34.00;;;;;6.82;100.00;98343.75;6283566;20;3609658;-59
2023/01/10 05:57:32;;;;;;;;;28.00;26.50;;;;;6.72;100.00;98343.50;6311307;20;2836867;-59
2023/01/10 06:00:03;;;;;;;;;32.00;26.00;;;;;6.66;100.00;98354.59;6279644;20;2858799;-60
2023/01/10 06:02:33;;;;;;;;;34.67;31.67;;;;;6.69;100.00;98365.06;6286515;20;3583695;-58
2023/01/10 06:05:00;;;;;;;;;20.50;7.50;;;;;6.66;100.00;98381.28;6314058;20;2825293;-61
2023/01/10 06:07:31;;;;;;;;;32.00;25.00;;;;;6.64;100.00;98383.19;6285093;20;3586835;-60
2023/01/10 06:09:59;;;;;;;;;47.67;38.00;;;;;6.69;100.00;98401.53;6318905;20;3625288;-60
2023/01/10 06:12:28;;;;;;;;;19.67;19.67;;;;;6.57;100.00;98382.72;6286513;20;3546132;-59
2023/01/10 06:14:56;;;;;;;;;23.33;19.33;;;;;6.60;100.00;98384.31;6314791;20;3571090;-60
2023/01/10 06:17:25;;;;;;;;;37.50;33.00;;;;;6.60;100.00;98392.31;6313978;20;2856463;-59
2023/01/10 06:19:53;;;;;;;;;34.00;30.50;;;;;6.61;100.00;98396.72;6281057;20;2498215;-59
2023/01/10 06:22:22;;;;;;;;;19.33;17.00;;;;;6.54;100.00;98406.06;6282524;20;3557579;-59
2023/01/10 06:24:51;;;;;;;;;21.00;21.00;;;;;6.60;100.00;98395.84;6314504;20;2831610;-60
2023/01/10 06:27:20;;;;;;;;;29.50;23.00;;;;;6.51;100.00;98388.47;6283085;20;2854500;-59
2023/01/10 06:29:49;;;;;;;;;42.00;36.33;;;;;6.49;100.00;98398.38;6284408;20;2858863;-60
2023/01/10 06:32:18;;;;;;;;;18.67;13.00;;;;;6.50;100.00;98396.56;6317379;20;3541972;-57
2023/01/10 06:34:46;;;;;;;;;31.00;26.00;;;;;6.54;100.00;98403.41;6315775;20;2846145;-60
2023/01/10 06:37:14;;;;;;;;;26.00;22.00;;;;;6.56;100.00;98406.84;6284684;20;2496110;-60
2023/01/10 06:39:45;;;;;;;;;26.33;20.33;;;;;6.56;100.00;98412.16;6285374;20;3588966;-59
2023/01/10 06:42:14;;;;;;;;;28.00;23.50;;;;;6.50;100.00;98417.88;6281230;20;2848680;-60
2023/01/10 06:44:47;;;;;;;;;34.00;32.67;;;;;6.58;100.00;98424.44;6282800;20;3605480;-59
2023/01/10 06:47:16;;;;;;;;;26.00;24.33;;;;;6.47;100.00;98434.09;6315037;20;3568992;-59
2023/01/10 06:49:43;;;;;;;;;37.00;31.00;;;;;6.48;100.00;98438.47;6279388;20;2500293;-59
2023/01/10 06:52:11;;;;;;;;;9.00;9.00;;;;;6.52;100.00;98439.97;6286016;20;2765966;-60
2023/01/10 06:54:40;;;;;;;;;33.00;28.50;;;;;6.59;100.00;98442.16;6285366;20;2852394;-60
2023/01/10 06:57:10;;;;;;;;;29.67;26.33;;;;;6.53;100.00;98452.34;6284824;20;2852569;-59
2023/01/10 06:59:38;;;;;;;;;26.50;25.00;;;;;6.58;100.00;98451.13;6314618;20;2841985;-57
2023/01/10 07:02:11;;;;;;;;;34.67;34.33;;;;;6.55;100.00;98455.78;6280530;20;2858857;-59
2023/01/10 07:04:39;;;;;;;;;19.50;15.50;;;;;6.53;100.00;98460.34;6311377;20;2487922;-59
2023/01/10 07:07:07;;;;;;;;;30.50;25.50;;;;;6.62;100.00;98458.91;6283600;20;2850319;-60
2023/01/10 07:09:36;;;;;;;;;34.50;31.50;;;;;6.62;100.00;98464.25;6281619;20;2849418;-59
2023/01/10 07:12:05;;;;;;;;;30.00;21.67;;;;;6.61;100.00;98463.41;6285630;20;3586760;-59
2023/01/10 07:14:33;;;;;;;;;17.33;13.33;;;;;6.66;100.00;98473.75;6279692;20;3532563;-56
2023/01/10 07:17:01;;;;;;;;;25.00;12.00;;;;;6.65;100.00;98480.03;6280976;20;2825301;-59
2023/01/10 07:19:30;;;;;;;;;25.50;23.00;;;;;6.58;100.00;98485.78;6281279;20;2834822;-60
2023/01/10 07:21:58;;;;;;;;;21.50;20.00;;;;;6.69;100.00;98486.88;6283753;20;2830523;-60
2023/01/10 07:24:26;;;;;;;;;32.00;21.50;;;;;6.69;100.00;98493.09;6281917;20;2500274;-60
2023/01/10 07:26:55;;;;;;;;;15.00;14.67;;;;;6.70;100.00;98505.44;6280748;20;3534642;-60
2023/01/10 07:29:23;;;;;;;;;15.00;14.00;;;;;6.63;100.00;98498.78;6314414;20;2793136;-58
2023/01/10 07:31:53;;;;;;;;;36.00;24.00;;;;;6.63;100.00;98500.63;6282366;20;2869059;-59
2023/01/10 07:34:22;;;;;;;;;30.00;27.50;;;;;6.65;100.00;98512.03;6312222;20;2841948;-59
2023/01/10 07:36:50;;;;;;;;;14.33;14.33;;;;;6.64;100.00;98511.19;6282181;20;3537798;-59
2023/01/10 07:39:21;;;;;;;;;11.50;9.17;;;;;6.50;100.00;98503.22;6350886;20;1802415;-58
2023/01/10 07:41:51;;;;;;;;;24.00;21.00;;;;;6.65;100.00;98520.03;6280505;20;3581547;-60
2023/01/10 07:44:20;;;;;;;;;25.00;19.50;;;;;6.74;100.00;98523.00;6284670;20;2838995;-59
2023/01/10 07:46:48;;;;;;;;;13.00;8.50;;;;;6.68;100.00;98526.03;6280613;20;2763826;-59
2023/01/10 07:49:17;;;;;;;;;13.00;7.00;;;;;6.66;100.00;98530.63;6291095;20;2773288;-59
2023/01/10 07:51:45;;;;;;;;;19.67;16.33;;;;;6.64;100.00;98526.34;6278790;20;3548218;-59
2023/01/10 07:54:14;;;;;;;;;20.00;16.67;;;;;6.63;100.00;98536.13;6309940;20;3556589;-57
2023/01/10 07:56:43;;;;;;;;;13.50;6.75;;;;;6.64;100.00;98537.00;6292895;20;1833301;-59
2023/01/10 07:59:10;;;;;;;;;11.00;10.50;;;;;6.59;100.00;98555.97;6312020;20;2771404;-57
2023/01/10 08:01:39;;;;;;;;;24.50;21.50;;;;;6.66;100.00;98561.75;6284874;20;2833707;-58
2023/01/10 08:04:09;;;;;;;;;26.50;22.00;;;;;6.67;100.00;98569.66;6286077;20;2848329;-59
2023/01/10 08:06:39;;;;;;;;;17.33;16.17;;;;;6.67;100.00;98575.00;6307732;20;2820105;-58
2023/01/10 08:09:08;;;;;;;;;29.67;23.67;;;;;6.84;100.00;98575.72;6313059;20;2856531;-59
2023/01/10 08:11:37;;;;;;;;;6.75;6.25;;;;;6.76;100.00;98584.22;6333550;20;1822474;-53
2023/01/10 08:14:08;;;;;;;;;11.50;6.00;;;;;6.71;100.00;98571.16;6330299;20;1820994;-59
2023/01/10 08:16:36;;;;;;;;;19.00;17.00;;;;;6.77;100.00;98576.13;6314315;20;2825291;-60
2023/01/10 08:19:05;;;;;;;;;14.67;10.00;;;;;6.75;100.00;98578.03;6280184;20;2793232;-56
2023/01/10 08:21:33;;;;;;;;;8.00;7.00;;;;;6.77;100.00;98584.13;6317737;20;2737873;-58
2023/01/10 08:24:01;;;;;;;;;35.33;25.00;;;;;6.91;100.00;98582.41;6316526;20;3598215;-59
2023/01/10 08:26:30;;;;;;;;;18.00;17.33;;;;;6.79;100.00;98594.69;6277863;20;3549279;-60
2023/01/10 08:28:58;;;;;;;;;12.00;9.00;;;;;6.84;100.00;98594.41;6282595;20;2769112;-59
2023/01/10 08:31:26;;;;;;;;;18.50;14.00;;;;;6.87;100.00;98596.88;6281722;20;2799367;-59
2023/01/10 08:33:55;;;;;;;;;19.00;16.00;;;;;6.94;100.00;98604.38;6279361;20;3548209;-60
2023/01/10 08:36:24;;;;;;;;;29.50;21.50;;;;;6.81;100.00;98616.78;6312201;20;2846155;-61
2023/01/10 08:38:55;;;;;;;;;20.50;17.50;;;;;6.85;100.00;98614.81;6277245;20;2830534;-59
2023/01/10 08:41:23;;;;;;;;;24.50;22.00;;;;;6.98;100.00;98629.09;6278727;20;2838820;-60
2023/01/10 08:43:52;;;;;;;;;12.50;10.50;;;;;6.88;100.00;98627.94;6284142;20;2779519;-60
2023/01/10 08:46:20;;;;;;;;;21.50;19.50;;;;;6.87;100.00;98639.56;6281594;20;2828468;-59
2023/01/10 08:48:49;;;;;;;;;14.50;13.00;;;;;6.80;100.00;98647.97;6281527;20;2796146;-60
2023/01/10 08:51:17;;;;;;;;;22.00;19.00;;;;;6.85;100.00;98649.50;6282770;20;2500292;-60
2023/01/10 08:53:45;;;;;;;;;22.00;19.50;;;;;6.81;100.00;98648.81;6279157;20;2500252;-59
2023/01/10 08:56:14;;;;;;;;;25.50;24.00;;;;;6.81;100.00;98655.00;6274182;20;2841953;-60
2023/01/10 08:58:42;;;;;;;;;15.50;9.00;;;;;6.75;100.00;98660.72;6299984;20;1823316;-60
2023/01/10 09:01:13;;;;;;;;;150.00;131.75;;;;;6.88;100.00;98667.97;6313682;20;3729654;-60
2023/01/10 09:03:42;;;;;;;;;56.50;43.50;;;;;6.82;100.00;98679.91;6314245;20;2876367;-59
2023/01/10 09:06:11;;;;;;;;;36.33;35.00;;;;;6.91;100.00;98691.78;6283815;20;2861863;-59
2023/01/10 09:08:40;;;;;;;;;32.00;27.67;;;;;6.87;100.00;98691.09;6318627;20;3582686;-59
2023/01/10 09:11:09;;;;;;;;;23.33;19.00;;;;;6.88;100.00;98697.31;6284010;20;3560683;-60
2023/01/10 09:13:39;;;;;;;;;27.50;25.50;;;;;6.87;100.00;98704.44;6315515;20;2852375;-58
2023/01/10 09:16:09;;;;;;;;;26.00;23.00;;;;;6.87;100.00;98709.78;6286235;20;2837827;-59
2023/01/10 09:18:37;;;;;;;;;8.50;6.00;;;;;6.82;100.00;98711.91;6287792;20;2747221;-59
2023/01/10 09:21:04;;;;;;;;;7.50;6.00;;;;;6.75;100.00;98716.75;6315009;20;2743000;-58
2023/01/10 09:23:32;;;;;;;;;13.00;6.00;;;;;6.81;100.00;98728.84;6286394;20;2756657;-57
2023/01/10 09:26:03;;;;;;;;;25.50;24.50;;;;;6.82;100.00;98733.25;6315563;20;2500311;-59
2023/01/10 09:28:32;;;;;;;;;7.67;4.67;;;;;6.76;100.00;98734.47;6288413;20;3462915;-59
2023/01/10 09:31:02;;;;;;;;;1.00;0.00;;;;;6.81;100.00;98736.84;6322262;20;2694075;-59
2023/01/10 09:33:31;;;;;;;;;28.00;22.00;;;;;6.86;100.00;98745.44;6318236;20;3576393;-59
2023/01/10 09:36:15;;;;;;;;;39.33;32.00;;;;;6.98;100.00;98749.16;6281640;20;3618053;-58
2023/01/10 09:38:44;;;;;;;;;47.00;40.50;;;;;7.02;100.00;98745.34;6316296;20;2865260;-60
2023/01/10 09:41:59;;;;;;;;;37.33;30.33;;;;;7.14;100.00;98757.94;6285139;20;2871199;-59
2023/01/10 09:44:36;;;;;;;;;18.00;14.50;;;;;7.04;100.00;98764.78;6318688;20;2823580;-60
2023/01/10 09:47:45;;;;;;;;;8.00;5.00;;;;;6.99;100.00;98765.06;6284196;20;2750303;-59
2023/01/10 09:51:18;;;;;;;;;11.00;2.75;;;;;7.02;100.00;98775.56;6294342;20;1821244;-58
2023/01/10 09:53:48;;;;;;;;;18.50;15.00;;;;;6.97;100.00;98771.44;6311811;20;2498322;-59
2023/01/10 09:56:21;;;;;;;;;27.00;20.50;;;;;7.08;100.00;98774.31;6284830;20;2850280;-60
2023/01/10 09:58:49;;;;;;;;;22.50;21.00;;;;;7.14;100.00;98775.78;6283296;20;2837809;-59
2023/01/10 10:01:28;;;;;;;;;38.67;31.00;;;;;7.09;100.00;98773.38;6283225;20;3620251;-60
2023/01/10 10:04:19;;;;;;;;;15.00;12.50;;;;;7.03;100.00;98774.63;6314664;20;2788836;-59
2023/01/10 10:06:51;;;;;;;;;31.67;31.33;;;;;7.08;100.00;98782.31;6285275;20;3597229;-61
2023/01/10 10:09:25;;;;;;;;;18.00;18.00;;;;;7.10;100.00;98775.06;6285476;20;2824244;-60
2023/01/10 10:12:31;;;;;;;;;12.50;11.00;;;;;6.76;100.00;98771.81;6280667;20;2793390;-58
2023/01/10 10:15:48;;;;;;;;;11.00;11.00;;;;;6.79;100.00;98778.78;6309812;20;2787786;-60
2023/01/10 10:19:24;;;;;;;;;7.00;7.00;;;;;6.56;100.00;98778.34;6306499;20;1813927;-60
2023/01/10 10:22:18;;;;;;;;;3.00;3.00;;;;;6.35;100.00;98788.50;6318338;20;2735765;-59
2023/01/10 10:25:00;;;;;;;;;3.25;3.25;;;;;6.34;100.00;98789.41;6335204;20;1805585;-59
2023/01/10 10:27:51;;;;;;;;;2.75;2.75;;;;;6.44;100.00;98796.91;6335557;20;1814991;-60
2023/01/10 10:30:46;;;;;;;;;4.50;4.50;;;;;6.33;100.00;98801.03;6317296;20;2747289;-56
2023/01/10 10:33:56;;;;;;;;;7.00;5.00;;;;;6.30;100.00;98813.72;6286430;20;2748195;-61
2023/01/10 10:36:37;;;;;;;;;21.33;13.67;;;;;6.29;100.00;98811.97;6282955;20;3549223;-59
2023/01/10 10:39:18;;;;;;;;;10.00;9.00;;;;;6.30;100.00;98816.38;6340832;20;2750276;-59
2023/01/10 10:41:51;;;;;;;;;7.50;7.50;;;;;6.33;100.00;98805.53;6314413;20;2746085;-59
2023/01/10 10:44:54;;;;;;;;;3.00;3.00;;;;;6.31;100.00;98812.75;6302222;20;1809638;-59
2023/01/10 10:47:26;;;;;;;;;2.00;2.00;;;;;6.20;100.00;98810.69;6331814;20;1810224;-59
2023/01/10 10:50:13;;;;;;;;;4.00;4.00;;;;;6.29;100.00;98838.63;6316560;20;2753444;-60
2023/01/10 10:52:45;;;;;;;;;4.00;3.00;;;;;6.33;100.00;98840.19;6338650;20;1821255;-58
2023/01/10 10:55:28;;;;;;;;;7.75;4.00;;;;;6.22;100.00;98850.59;6331182;20;1820299;-58
2023/01/10 10:57:57;;;;;;;;;3.50;2.75;;;;;6.20;100.00;98850.69;6333479;20;1812957;-60
2023/01/10 11:00:29;;;;;;;;;2.00;2.00;;;;;6.36;100.00;98846.19;6313972;20;2755851;-59
2023/01/10 11:03:15;;;;;;;;;1.00;1.00;;;;;6.40;100.00;98854.00;6315893;20;1803492;-59
2023/01/10 11:05:46;;;;;;;;;1.00;1.00;;;;;6.25;100.00;98861.94;6335523;20;1813929;-59
2023/01/10 11:08:17;;;;;;;;;3.00;3.00;;;;;6.44;100.00;98851.06;6316648;20;2746155;-59
2023/01/10 11:10:57;;;;;;;;;4.00;4.00;;;;;6.46;100.00;98864.31;6329554;20;1819250;-58
2023/01/10 11:13:32;;;;;;;;;7.00;6.75;;;;;6.24;100.00;98870.00;6329473;20;1817745;-59
2023/01/10 11:16:04;;;;;;;;;1.00;1.00;;;;;6.25;100.00;98864.59;6336203;20;1804466;-55
2023/01/10 11:18:33;;;;;;;;;6.50;2.00;;;;;6.17;100.00;98874.84;6316021;20;2752646;-60
2023/01/10 11:21:13;;;;;;;;;3.25;3.25;;;;;6.25;100.00;98883.25;6301966;20;1821205;-59
2023/01/10 11:23:54;;;;;;;;;1.00;1.00;;;;;6.11;100.00;98885.88;6334110;20;1814336;-57
2023/01/10 11:26:26;;;;;;;;;10.60;10.40;;;;;6.18;100.00;98895.22;6338200;20;2759937;-58
2023/01/10 11:29:41;;;;;;;;;20.00;13.00;;;;;6.08;100.00;98886.00;6281227;20;3529423;-59
2023/01/10 11:32:33;;;;;;;;;13.33;12.00;;;;;6.20;100.00;98885.34;6309334;20;3534661;-60
2023/01/10 11:35:36;;;;;;;;;14.00;12.67;;;;;6.10;100.00;98890.31;6312811;20;3530561;-60
2023/01/10 11:38:13;;;;;;;;;9.00;8.00;;;;;6.11;100.00;98896.53;6336068;20;1816008;-59
2023/01/10 11:40:54;;;;;;;;;7.00;5.00;;;;;6.08;100.00;98902.88;6315137;20;2748215;-58
2023/01/10 11:43:35;;;;;;;;;5.50;4.00;;;;;6.08;100.00;98902.00;6281406;20;2752400;-59
2023/01/10 11:46:24;;;;;;;;;1.00;1.00;;;;;6.23;100.00;98913.63;6286488;20;3438853;-58
2023/01/10 11:49:18;;;;;;;;;3.00;3.00;;;;;6.04;100.00;98911.13;6331702;20;1809699;-59